• Join FlightAware (Why Join?)
  • Login
  • US Flag 
05:55AM EDT


 

Airport Tracker/Info


-or-


 

Live Flight TrackerFlight Track Log ✈ AWE3418 ✈ 22-Apr-2013 ✈ KPHL - KMHT

Flight Track Log - Related Links

Times and Time Zones

All times are in EDT time to prevent confusion due to time zone crossing. See the AWE3418 flight status page for this flight to view local times or setup timezone preferences in your user account.

Time Position Orientation Groundspeed Altitude Reporting Facility
EDT Latitude Longitude Course Direction KTS MPH feet Rate Location/Type
07:12PM 39.8833 -75.2167 303° West 132 152 1,100  Level Philadelphia TRACON
07:12PM 39.8822 -75.2006 95° East 139 160 2,200 1,860 Climbing FAA TRACON SMA TRACON (SMA)
07:13PM 39.8878 -75.1844 66° East 158 182 2,600 1,500 Climbing FAA TRACON SMA TRACON (SMA)
07:13PM 39.8956 -75.1647 63° Northeast 187 215 3,200 1,920 Climbing FAA TRACON SMA TRACON (SMA)
07:13PM 39.9164 -75.1533 23° Northeast 227 261 3,900 2,220 Climbing FAA TRACON SMA TRACON (SMA)
07:14PM 40.1190 -75.4690 323° Northwest  Level FlightAware Approximate
07:14PM 39.9378 -75.1458 15° North 254 292 4,700  Level FAA TRACON SMA TRACON (SMA)
07:14PM 39.9592 -75.1397 12° North 258 297 5,600 2,820 Climbing FAA TRACON SMA TRACON (SMA)
07:14PM 39.9869 -75.1336 10° North 270 311 6,600 2,700 Climbing FAA TRACON SMA TRACON (SMA)
07:15PM 40.2041 -75.5500 North  Level FlightAware Approximate
07:15PM 40.0058 -75.1450 335° Northwest 273 314 7,400  Level FAA TRACON SMA TRACON (SMA)
07:15PM 40.0228 -75.1806 302° West 276 318 8,500 3,000 Climbing FAA TRACON SMA TRACON (SMA)
07:15PM 40.0364 -75.2047 306° West 280 322 9,400 2,100 Climbing FAA TRACON SMA TRACON (SMA)
07:16PM 40.3083 -75.6874 311° West  Level FlightAware Approximate
07:16PM 40.0486 -75.2283 304° West 281 323 9,900  Level FAA TRACON SMA TRACON (SMA)
07:16PM 40.0678 -75.2653 304° West 293 337 10,000 900 Climbing FAA TRACON SMA TRACON (SMA)
07:16PM 40.0825 -75.2928 305° West 308 354 10,500 1,920 Climbing FAA TRACON SMA TRACON (SMA)
07:17PM 40.4038 -75.8410 303° West  Level FlightAware Approximate
07:17PM 40.0972 -75.3186 307° West 310 357 11,300  Level FAA TRACON SMA TRACON (SMA)
07:17PM 40.1167 -75.3581 303° West 310 357 12,100 2,220 Climbing FAA TRACON SMA TRACON (SMA)
07:17PM 40.1319 -75.3875 304° West 315 362 12,800 1,320 Climbing FAA TRACON SMA TRACON (SMA)
07:18PM 40.1469 -75.4153 305° West 318 366 13,000 300 Climbing FAA TRACON SMA TRACON (SMA)
07:18PM 40.1667 -75.4542 304° West 321 369 13,000  Level FAA TRACON SMA TRACON (SMA)
07:18PM 40.1819 -75.4836 304° West 320 368 13,000 120 Level FAA TRACON SMA TRACON (SMA)
07:19PM 40.1967 -75.5092 307° West 319 367 13,100 1,620 Climbing FAA TRACON SMA TRACON (SMA)
07:19PM 40.2169 -75.5503 303° West 322 371 14,100 2,460 Climbing FAA TRACON SMA TRACON (SMA)
07:19PM 40.2336 -75.5783 308° West 325 374 14,800 1,920 Climbing FAA TRACON SMA TRACON (SMA)
07:20PM 40.2525 -75.6044 313° West 321 369 15,400 2,580 Climbing FAA TRACON SMA TRACON (SMA)
07:20PM 40.2764 -75.6422 310° West 333 383 16,500 2,160 Climbing FAA TRACON SMA TRACON (SMA)
07:20PM 40.2950 -75.6650 317° Northwest 330 380 16,900 720 Climbing FAA TRACON SMA TRACON (SMA)
07:21PM 40.3125 -75.6944 308° West 331 381 17,000 120 Climbing FAA TRACON SMA TRACON (SMA)
07:21PM 40.3367 -75.7333 309° West 331 381 17,000  Level FAA TRACON SMA TRACON (SMA)
07:21PM 40.3553 -75.7614 311° West 331 381 17,000  Level FAA TRACON SMA TRACON (SMA)
07:22PM 40.3717 -75.7861 311° West 331 381 17,000  Level FAA TRACON SMA TRACON (SMA)
07:22PM 40.3717 -75.7861 194° South 331 381 17,000  Level FAA TRACON SMA TRACON (SMA)
07:23PM 40.4481 -75.9500 302° West 333 383 17,000  Level New York Center
07:24PM 40.4700 -76.0636 284° West 323 372 17,000  Level New York Center
07:25PM 40.4839 -76.1711 280° West 328 377 17,000 480 Level New York Center
07:26PM 40.5050 -76.3011 282° West 328 377 18,000 1,440 Climbing New York Center
07:27PM 40.5242 -76.4228 282° West 334 384 19,900 1,740 Climbing New York Center
07:28PM 40.5453 -76.5475 283° West 340 391 21,500 1,560 Climbing New York Center
07:29PM 40.6208 -76.6250 322° Northwest 320 368 23,100 1,500 Climbing New York Center
07:30PM 40.7281 -76.6478 351° North 341 392 24,600 1,380 Climbing New York Center
07:31PM 40.8333 -76.6678 352° North 354 407 25,900 1,200 Climbing New York Center
07:32PM 40.9444 -76.6939 350° North 380 437 27,000 540 Climbing New York Center
07:33PM 41.0558 -76.7175 351° North 399 459 27,000  Level New York Center
07:34PM 41.1653 -76.7381 352° North 404 465 27,000  Level New York Center
07:35PM 41.2789 -76.7564 353° North 404 465 27,000  Level New York Center
07:36PM 41.3781 -76.6878 27° Northeast 385 443 27,000  Level New York Center
07:37PM 41.4492 -76.5556 54° Northeast 387 445 27,000  Level New York Center
07:38PM 41.5108 -76.4417 54° Northeast 397 457 27,000  Level New York Center
07:39PM 41.5756 -76.3086 57° Northeast 416 479 27,000  Level New York Center
07:40PM 41.6400 -76.1750 57° Northeast 421 484 27,000  Level New York Center
07:43PM 41.7894 -75.8819 56° Northeast 436 502 27,000  Level Boston Center
07:44PM 41.8519 -75.7486 58° Northeast 426 490 27,000  Level Boston Center
07:45PM 41.9203 -75.6128 56° Northeast 426 490 27,000  Level Boston Center
07:46PM 41.9844 -75.4761 58° Northeast 426 490 27,000  Level Boston Center
07:47PM 42.0528 -75.3369 56° Northeast 426 490 27,000  Level Boston Center
07:48PM 42.1231 -75.1917 57° Northeast 443 510 27,000  Level Boston Center
07:49PM 42.1847 -75.0517 59° Northeast 443 510 27,000  Level Boston Center
07:50PM 42.2506 -74.9111 58° Northeast 438 504 27,000  Level Boston Center
07:51PM 42.3161 -74.7706 58° Northeast 438 504 27,000  Level Boston Center
07:52PM 42.3836 -74.6242 58° Northeast 443 510 27,000  Level Boston Center
07:53PM 42.4447 -74.4800 60° Northeast 437 503 27,000  Level Boston Center
07:54PM 42.4833 -74.2925 74° East 444 511 27,000 -540 Level Boston Center
07:55PM 42.5108 -74.1217 78° East 458 527 26,000 -1,260 Descending Boston Center
07:56PM 42.5383 -73.9503 78° East 458 527 24,500 -1,500 Descending Boston Center
07:57PM 42.5656 -73.7847 77° East 451 519 23,000 -780 Descending Boston Center
07:58PM 42.5856 -73.6528 78° East 446 513 23,000  Level Boston Center
07:59PM 42.6189 -73.4586 77° East 446 513 23,000 -240 Level Boston Center
08:00PM 42.6431 -73.2925 79° East 446 513 22,600 -840 Descending Boston Center
08:01PM 42.6628 -73.1628 78° East 446 513 21,400 -840 Descending Boston Center
08:02PM 42.6867 -72.9881 79° East 440 506 21,000 -240 Descending Boston Center
08:03PM 42.7061 -72.8214 81° East 440 506 21,000 -540 Level Boston Center
08:04PM 42.7317 -72.6294 80° East 433 498 19,900 -1,440 Descending Boston Center
08:05PM 42.7547 -72.4797 78° East 416 479 17,900 -2,340 Descending Boston Center
08:06PM 42.7714 -72.3411 81° East 394 453 15,300 -2,760 Descending Boston Center
08:07PM 42.7858 -72.2167 81° East 352 405 12,400 -2,580 Descending Boston Center
08:08PM 42.8019 -72.0864 80° East 317 365 10,200 -1,860 Descending Boston Center
08:09PM 42.8225 -71.9956 73° East 286 329 8,700 -1,620 Descending Boston Center
08:10PM 42.8492 -71.8850 72° East 275 316 7,000 -1,620 Descending Boston Center
08:11PM 42.8717 -71.8056 69° East 259 298 5,500 -960 Descending Boston Center
08:12PM 42.8961 -71.7175 69° East 227 261 5,100 -300 Descending Boston Center
08:13PM 42.9167 -71.6519 67° East 210 242 5,000 -60 Descending Boston Center
08:14PM 42.9581 -71.6033 41° Northeast 199 229 5,000  Level Boston Center
08:15PM 43.0103 -71.6394 333° Northwest 208 239 5,000 -120 Level Boston Center
08:16PM 43.0753 -71.6842 333° Northwest 224 258 4,800 -780 Descending Boston Center
08:17PM 43.1231 -71.6719 11° North 196 226 3,400 -900 Descending Boston Center
08:18PM 43.1333 -71.6000 79° East 162 186 3,000 -360 Descending KA90
08:19PM 43.1000 -71.5667 144° Southeast 157 181 2,800 -300 Descending KA90
08:20PM 43.0678 -71.5164 131° Southeast 156 180 2,400 -420 Descending Boston Center